createdAt,value
2018-09-21T00:02:25.644Z,39.84
2018-09-21T00:04:54.984Z,40.01
2018-09-21T00:07:24.350Z,39.57
2018-09-21T00:09:54.197Z,39.91
2018-09-21T00:12:24.530Z,39.91
2018-09-21T00:14:53.870Z,40.06
2018-09-21T00:17:23.609Z,39.41
2018-09-21T00:19:52.911Z,39.65
2018-09-21T00:22:22.291Z,40.02
2018-09-21T00:24:51.935Z,40.10
2018-09-21T00:27:21.255Z,40.25
2018-09-21T00:29:50.617Z,39.70
2018-09-21T00:32:20.449Z,39.79
2018-09-21T00:34:50.751Z,39.81
2018-09-21T00:37:20.135Z,40.23
2018-09-21T00:39:50.334Z,40.04
2018-09-21T00:42:21.555Z,40.06
2018-09-21T00:44:50.914Z,40.18
2018-09-21T00:47:20.889Z,40.30
2018-09-21T00:49:50.196Z,39.96
2018-09-21T00:52:19.556Z,40.17
2018-09-21T00:54:48.870Z,40.76
2018-09-21T00:57:18.255Z,40.69
2018-09-21T00:59:47.601Z,41.03
2018-09-21T01:02:16.951Z,40.30
2018-09-21T01:04:46.309Z,40.56
2018-09-21T01:07:16.163Z,40.15
2018-09-21T01:09:45.569Z,40.58
2018-09-21T01:12:15.473Z,40.31
2018-09-21T01:14:44.842Z,40.85
2018-09-21T01:17:14.215Z,40.53
2018-09-21T01:19:43.709Z,39.94
2018-09-21T01:22:13.270Z,40.49
2018-09-21T01:24:42.923Z,40.90
2018-09-21T01:27:15.205Z,40.11
2018-09-21T01:29:45.482Z,40.49
2018-09-21T01:32:15.676Z,41.65
2018-09-21T01:34:45.050Z,40.83
2018-09-21T01:37:14.372Z,40.52
2018-09-21T01:39:43.703Z,41.45
2018-09-21T01:42:13.345Z,41.56
2018-09-21T01:44:43.751Z,42.01
2018-09-21T01:47:13.374Z,41.31
2018-09-21T01:49:43.045Z,41.54
2018-09-21T01:52:12.380Z,41.39
2018-09-21T01:54:41.737Z,41.39
2018-09-21T01:57:11.474Z,41.79
2018-09-21T01:59:40.780Z,41.77
2018-09-21T02:02:10.144Z,41.59
2018-09-21T02:04:41.090Z,41.27
2018-09-21T02:07:12.385Z,41.70
2018-09-21T02:09:41.817Z,41.32
2018-09-21T02:12:11.650Z,41.84
2018-09-21T02:14:41.252Z,41.55
2018-09-21T02:17:10.628Z,41.89
2018-09-21T02:19:40.344Z,41.40
2018-09-21T02:22:09.730Z,42.11
2018-09-21T02:24:39.237Z,42.29
2018-09-21T02:27:08.999Z,42.25
2018-09-21T02:29:38.403Z,42.29
2018-09-21T02:32:08.073Z,42.28
2018-09-21T02:34:37.704Z,41.56
2018-09-21T02:37:07.115Z,42.48
2018-09-21T02:39:36.492Z,42.17
2018-09-21T02:42:05.788Z,42.32
2018-09-21T02:44:35.177Z,42.58
2018-09-21T02:47:04.527Z,42.72
2018-09-21T02:49:35.338Z,42.82
2018-09-21T02:52:04.698Z,42.17
2018-09-21T02:54:35.302Z,42.15
2018-09-21T02:57:04.756Z,43.21
2018-09-21T02:59:34.730Z,43.51
2018-09-21T03:02:04.085Z,43.36
2018-09-21T03:04:33.577Z,44.16
2018-09-21T03:07:02.988Z,43.58
2018-09-21T03:09:32.956Z,43.17
2018-09-21T03:12:02.974Z,42.59
2018-09-21T03:14:32.397Z,43.06
2018-09-21T03:17:01.741Z,43.37
2018-09-21T03:19:31.208Z,43.33
2018-09-21T03:22:00.773Z,42.72
2018-09-21T03:24:30.817Z,42.97
2018-09-21T03:27:00.231Z,43.22
2018-09-21T03:29:29.624Z,43.40
2018-09-21T03:31:59.145Z,44.03
2018-09-21T03:34:28.918Z,44.04
2018-09-21T03:36:58.346Z,43.92
2018-09-21T03:39:27.799Z,44.49
2018-09-21T03:41:57.583Z,44.36
2018-09-21T03:44:27.351Z,44.63
2018-09-21T03:46:56.789Z,44.06
2018-09-21T03:49:26.519Z,44.21
2018-09-21T03:51:55.934Z,43.93
2018-09-21T03:54:25.401Z,43.62
2018-09-21T03:56:55.238Z,43.69
2018-09-21T03:59:24.650Z,43.79
2018-09-21T04:01:54.291Z,44.20
2018-09-21T04:04:24.681Z,45.08
2018-09-21T04:06:54.457Z,44.95
2018-09-21T04:09:23.946Z,44.47
2018-09-21T04:11:53.659Z,45.06
2018-09-21T04:14:23.481Z,44.60
2018-09-21T04:16:52.858Z,44.12
2018-09-21T04:19:22.769Z,44.27
2018-09-21T04:21:52.203Z,43.35
2018-09-21T04:24:21.629Z,44.06
2018-09-21T04:26:52.661Z,44.24
2018-09-21T04:29:23.189Z,44.03
2018-09-21T04:31:52.632Z,43.43
2018-09-21T04:34:22.403Z,44.02
2018-09-21T04:36:51.824Z,43.58
2018-09-21T04:39:21.251Z,44.05
2018-09-21T04:41:51.747Z,44.57
2018-09-21T04:44:21.177Z,44.25
2018-09-21T04:46:50.623Z,44.23
2018-09-21T04:49:20.949Z,44.50
2018-09-21T04:51:50.398Z,43.86
2018-09-21T04:54:19.871Z,44.01
2018-09-21T04:56:50.193Z,44.14
2018-09-21T04:59:19.628Z,43.83
2018-09-21T05:01:49.021Z,44.54
2018-09-21T05:04:18.442Z,44.69
2018-09-21T05:06:48.233Z,44.29
2018-09-21T05:09:19.302Z,44.12
2018-09-21T05:11:49.013Z,44.59
2018-09-21T05:14:18.878Z,44.73
2018-09-21T05:16:48.282Z,44.77
2018-09-21T05:19:17.823Z,45.37
2018-09-21T05:21:47.525Z,44.23
2018-09-21T05:24:17.231Z,43.96
2018-09-21T05:26:46.673Z,45.03
2018-09-21T05:29:16.487Z,44.90
2018-09-21T05:31:45.938Z,44.66
2018-09-21T05:34:15.425Z,44.96
2018-09-21T05:36:45.345Z,44.63
2018-09-21T05:39:15.559Z,44.08
2018-09-21T05:41:47.147Z,45.13
2018-09-21T05:44:16.919Z,44.49
2018-09-21T05:46:48.636Z,43.80
2018-09-21T05:49:18.142Z,43.48
2018-09-21T05:51:47.949Z,43.15
2018-09-21T05:54:17.511Z,43.00
2018-09-21T05:56:48.403Z,42.63
2018-09-21T05:59:18.920Z,42.26
2018-09-21T06:01:48.965Z,41.74
2018-09-21T06:04:18.654Z,41.63
2018-09-21T06:06:49.784Z,41.19
2018-09-21T06:09:20.839Z,40.35
2018-09-21T06:11:50.297Z,40.48
2018-09-21T06:14:19.751Z,40.06
2018-09-21T06:16:49.515Z,39.93
2018-09-21T06:19:19.255Z,39.40
2018-09-21T06:21:49.669Z,39.09
2018-09-21T06:24:22.480Z,38.65
2018-09-21T06:26:54.059Z,38.83
2018-09-21T06:29:24.875Z,37.85
2018-09-21T06:31:54.439Z,37.73
2018-09-21T06:34:24.557Z,38.48
2018-09-21T06:36:54.883Z,38.38
2018-09-21T06:39:24.325Z,37.57
2018-09-21T06:41:56.541Z,38.31
2018-09-21T06:44:26.795Z,37.94
2018-09-21T06:46:57.092Z,37.81
2018-09-21T06:49:27.199Z,38.69
2018-09-21T06:51:56.672Z,39.39
2018-09-21T06:54:26.829Z,39.86
2018-09-21T06:56:57.970Z,40.80
2018-09-21T06:59:39.839Z,40.65
2018-09-21T07:02:09.294Z,40.41
2018-09-21T07:04:38.752Z,40.62
2018-09-21T07:07:10.042Z,40.61
2018-09-21T07:09:42.476Z,40.80
2018-09-21T07:12:11.959Z,40.76
2018-09-21T07:14:41.507Z,40.53
2018-09-21T07:17:11.024Z,41.40
2018-09-21T07:19:43.863Z,41.55
2018-09-21T07:22:14.081Z,41.86
2018-09-21T07:24:43.621Z,41.83
2018-09-21T07:27:14.698Z,42.04
2018-09-21T07:29:44.146Z,41.53
2018-09-21T07:32:13.620Z,42.65
2018-09-21T07:34:43.396Z,43.01
2018-09-21T07:37:12.838Z,42.67
2018-09-21T07:39:42.999Z,43.08
2018-09-21T07:42:14.169Z,43.07
2018-09-21T07:44:43.935Z,42.90
2018-09-21T07:47:14.020Z,42.37
2018-09-21T07:49:44.276Z,41.85
2018-09-21T07:52:13.748Z,40.84
2018-09-21T07:54:43.295Z,41.49
2018-09-21T07:57:14.619Z,40.90
2018-09-21T07:59:45.465Z,41.62
2018-09-21T08:02:15.789Z,41.54
2018-09-21T08:04:45.729Z,40.38
2018-09-21T08:07:16.531Z,40.18
2018-09-21T08:09:46.193Z,41.12
2018-09-21T08:12:15.598Z,39.86
2018-09-21T08:14:45.297Z,40.46
2018-09-21T08:17:14.758Z,39.60
2018-09-21T08:19:44.836Z,40.15
2018-09-21T08:22:14.919Z,39.79
2018-09-21T08:24:44.362Z,39.39
2018-09-21T08:27:16.365Z,39.41
2018-09-21T08:29:47.822Z,39.72
2018-09-21T08:32:17.484Z,39.42
2018-09-21T08:34:47.002Z,39.95
2018-09-21T08:37:16.740Z,39.63
2018-09-21T08:39:51.213Z,39.43
2018-09-21T08:42:21.570Z,38.76
2018-09-21T08:44:51.080Z,39.01
2018-09-21T08:47:20.525Z,38.42
2018-09-21T08:49:53.652Z,37.74
2018-09-21T08:52:23.640Z,38.09
2018-09-21T08:54:53.173Z,37.70
2018-09-21T08:57:23.172Z,37.92
2018-09-21T08:59:52.723Z,38.41
2018-09-21T09:02:25.116Z,37.54
2018-09-21T09:04:54.836Z,37.52
2018-09-21T09:07:24.331Z,35.95
2018-09-21T09:09:53.792Z,37.09
2018-09-21T09:12:25.323Z,35.96
2018-09-21T09:14:55.516Z,35.87
2018-09-21T09:17:25.920Z,35.79
2018-09-21T09:19:55.349Z,35.57
2018-09-21T09:22:24.806Z,36.01
2018-09-21T09:24:54.212Z,35.73
2018-09-21T09:27:24.859Z,36.16
2018-09-21T09:29:56.043Z,36.51
2018-09-21T09:32:25.722Z,35.46
2018-09-21T09:34:55.452Z,36.02
2018-09-21T09:37:26.453Z,35.83
2018-09-21T09:39:55.939Z,35.61
2018-09-21T09:42:25.611Z,35.28
2018-09-21T09:44:55.050Z,35.72
2018-09-21T09:47:27.329Z,35.11
2018-09-21T09:50:00.518Z,35.29
2018-09-21T09:52:30.041Z,34.98
2018-09-21T09:54:59.591Z,34.98
2018-09-21T09:57:30.547Z,35.07
2018-09-21T10:00:01.162Z,35.32
2018-09-21T10:02:30.585Z,34.81
2018-09-21T10:05:01.559Z,34.50
2018-09-21T10:07:34.059Z,35.14
2018-09-21T10:10:04.245Z,34.39
2018-09-21T10:12:34.689Z,34.05
2018-09-21T10:15:12.290Z,33.92
2018-09-21T10:17:42.548Z,33.37
2018-09-21T10:20:11.961Z,33.29
2018-09-21T10:22:42.492Z,33.20
2018-09-21T10:25:13.420Z,33.56
2018-09-21T10:27:44.676Z,32.77
2018-09-21T10:30:16.370Z,32.52
2018-09-21T10:32:48.135Z,31.98
2018-09-21T10:35:17.685Z,32.72
2018-09-21T10:37:49.634Z,32.14
2018-09-21T10:40:20.919Z,31.65
2018-09-21T10:42:52.671Z,31.54
2018-09-21T10:45:26.648Z,32.18
2018-09-21T10:47:57.835Z,31.55
2018-09-21T10:50:28.298Z,31.98
2018-09-21T10:53:00.444Z,31.37
2018-09-21T10:55:31.389Z,30.73
2018-09-21T10:58:02.633Z,30.92
2018-09-21T11:00:32.999Z,31.46
2018-09-21T11:03:03.903Z,30.92
2018-09-21T11:05:34.293Z,30.56
2018-09-21T11:08:05.803Z,30.61
2018-09-21T11:13:14.074Z,29.51
2018-09-21T11:15:44.397Z,29.63
2018-09-21T11:18:15.607Z,29.99
2018-09-21T11:20:50.079Z,29.11
2018-09-21T11:23:22.123Z,29.86
2018-09-21T11:25:53.462Z,29.47
2018-09-21T11:28:23.883Z,30.25
2018-09-21T11:30:55.323Z,29.37
2018-09-21T11:33:28.985Z,30.08
2018-09-21T11:36:00.586Z,30.00
2018-09-21T11:38:32.065Z,30.03
2018-09-21T11:41:04.534Z,30.01
2018-09-21T11:43:35.861Z,30.72
2018-09-21T11:46:07.131Z,31.72
2018-09-21T11:48:38.549Z,31.27
2018-09-21T11:51:11.765Z,30.82
2018-09-21T11:53:42.150Z,30.52
2018-09-21T11:56:15.486Z,31.05
2018-09-21T11:58:47.548Z,31.39
2018-09-21T12:01:18.715Z,30.91
2018-09-21T12:03:50.210Z,31.59
2018-09-21T12:06:21.574Z,32.74
2018-09-21T12:08:53.801Z,32.31
2018-09-21T12:11:25.172Z,31.65
2018-09-21T12:13:58.474Z,32.36
2018-09-21T12:16:29.882Z,32.81
2018-09-21T12:19:01.774Z,32.66
2018-09-21T12:21:40.260Z,33.07
2018-09-21T12:24:13.742Z,32.52
2018-09-21T12:26:48.089Z,33.25
2018-09-21T12:29:20.646Z,35.49
2018-09-21T12:31:55.675Z,37.92
2018-09-21T12:34:27.255Z,40.31
2018-09-21T12:36:59.142Z,41.92
2018-09-21T12:39:31.266Z,42.70
2018-09-21T12:44:39.893Z,45.00
2018-09-21T12:47:11.441Z,45.18
2018-09-21T12:49:43.662Z,45.65
2018-09-21T12:52:16.628Z,45.09
2018-09-21T12:54:49.343Z,45.42
2018-09-21T12:57:20.761Z,44.58
2018-09-21T12:59:54.905Z,45.43
2018-09-21T13:02:26.886Z,45.11
2018-09-21T13:04:58.532Z,42.68
2018-09-21T13:07:30.093Z,44.82
2018-09-21T13:10:03.322Z,46.59
2018-09-21T13:12:35.518Z,48.79
2018-09-21T13:15:06.931Z,49.66
2018-09-21T13:17:39.002Z,50.04
2018-09-21T13:20:11.053Z,49.89
2018-09-21T13:22:43.594Z,51.31
2018-09-21T13:25:15.362Z,51.67
2018-09-21T13:27:46.459Z,52.04
2018-09-21T13:30:19.624Z,51.07
2018-09-21T13:32:54.274Z,50.94
2018-09-21T13:35:29.282Z,51.60
2018-09-21T13:38:04.645Z,51.96
2018-09-21T13:40:36.090Z,51.38
2018-09-21T13:43:09.246Z,51.51
2018-09-21T13:45:40.681Z,51.45
2018-09-21T13:48:11.806Z,50.93
2018-09-21T13:50:46.041Z,51.63
2018-09-21T13:53:18.433Z,51.07
2018-09-21T13:55:51.131Z,50.88
2018-09-21T13:58:22.262Z,49.21
2018-09-21T14:00:54.546Z,50.26
2018-09-21T14:03:28.473Z,49.95
2018-09-21T14:06:04.602Z,48.88
2018-09-21T14:08:37.464Z,50.18
2018-09-21T14:11:09.682Z,50.42
2018-09-21T14:13:41.558Z,50.74
2018-09-21T14:16:12.767Z,51.47
2018-09-21T14:18:43.887Z,50.33
2018-09-21T14:21:15.297Z,51.54
2018-09-21T14:23:47.340Z,51.04
2018-09-21T14:26:20.191Z,50.44
2018-09-21T14:28:53.696Z,49.63
2018-09-21T14:31:26.075Z,50.41
2018-09-21T14:33:58.368Z,50.22
2018-09-21T14:36:30.436Z,49.61
2018-09-21T14:39:02.368Z,50.43
2018-09-21T14:41:34.893Z,50.59
2018-09-21T14:44:06.745Z,51.87
2018-09-21T14:46:39.415Z,52.30
2018-09-21T14:49:11.930Z,51.73
2018-09-21T14:51:45.649Z,51.15
2018-09-21T14:54:17.732Z,50.63
2018-09-21T14:56:49.177Z,49.92
2018-09-21T14:59:21.161Z,48.86
2018-09-21T15:01:52.272Z,49.26
2018-09-21T15:04:23.722Z,48.72
2018-09-21T15:06:55.700Z,48.71
2018-09-21T15:09:28.288Z,48.81
2018-09-21T15:12:00.915Z,48.72
2018-09-21T15:14:34.198Z,48.63
2018-09-21T15:17:06.555Z,49.11
2018-09-21T15:19:37.739Z,49.08
2018-09-21T15:22:10.950Z,47.68
2018-09-21T15:24:45.449Z,47.35
2018-09-21T15:27:17.645Z,45.37
2018-09-21T15:29:49.130Z,45.48
2018-09-21T15:32:20.339Z,44.94
2018-09-21T15:34:52.054Z,46.12
2018-09-21T15:37:24.955Z,45.34
2018-09-21T15:39:56.790Z,44.01
2018-09-21T15:42:29.077Z,44.43
2018-09-21T15:45:00.136Z,45.55
2018-09-21T15:47:31.889Z,45.74
2018-09-21T15:50:04.593Z,45.34
2018-09-21T15:54:59.544Z,46.26
2018-09-21T15:57:31.179Z,46.20
2018-09-21T16:00:05.308Z,46.21
2018-09-21T16:02:37.276Z,45.66
2018-09-21T16:05:08.428Z,45.69
2018-09-21T16:07:41.457Z,45.17
2018-09-21T16:10:12.630Z,45.29
2018-09-21T16:12:52.645Z,45.03
2018-09-21T16:15:28.435Z,44.14
2018-09-21T16:18:01.050Z,44.90
2018-09-21T16:20:34.419Z,44.98
2018-09-21T16:23:08.389Z,44.65
2018-09-21T16:25:45.267Z,45.00
2018-09-21T16:28:16.637Z,44.83
2018-09-21T16:30:48.389Z,43.42
2018-09-21T16:33:20.555Z,43.79
2018-09-21T16:35:52.490Z,42.28
2018-09-21T16:38:25.358Z,41.88
2018-09-21T16:40:56.574Z,42.24
2018-09-21T16:43:27.664Z,41.36
2018-09-21T16:46:00.755Z,42.38
2018-09-21T16:48:32.904Z,42.15
2018-09-21T16:51:04.086Z,42.75
2018-09-21T16:53:35.507Z,42.94
2018-09-21T16:56:07.361Z,41.86
2018-09-21T16:58:38.503Z,42.27
2018-09-21T17:01:10.440Z,42.77
2018-09-21T17:03:42.475Z,43.75
2018-09-21T17:06:14.237Z,42.98
2018-09-21T17:08:45.315Z,43.62
2018-09-21T17:11:19.450Z,43.08
2018-09-21T17:13:52.570Z,42.24
2018-09-21T17:16:23.667Z,41.55
2018-09-21T17:18:55.527Z,41.97
2018-09-21T17:21:28.077Z,42.52
2018-09-21T17:26:24.243Z,40.87
2018-09-21T17:28:57.358Z,40.22
2018-09-21T17:31:31.554Z,38.18
2018-09-21T17:34:04.634Z,37.76
2018-09-21T17:36:40.260Z,37.23
2018-09-21T17:39:14.758Z,36.70
2018-09-21T17:41:47.710Z,35.69
2018-09-21T17:44:25.413Z,35.98
2018-09-21T17:46:58.588Z,36.75
2018-09-21T17:49:31.556Z,36.33
2018-09-21T17:52:03.269Z,35.45
2018-09-21T17:54:34.527Z,35.32
2018-09-21T17:57:06.414Z,36.02
2018-09-21T17:59:38.156Z,35.31
2018-09-21T18:02:10.442Z,35.94
2018-09-21T18:04:42.538Z,35.38
2018-09-21T18:07:19.298Z,36.52
2018-09-21T18:09:53.338Z,36.33
2018-09-21T18:12:25.204Z,36.46
2018-09-21T18:14:56.300Z,35.88
2018-09-21T18:17:29.582Z,36.78
2018-09-21T18:20:03.093Z,36.35
2018-09-21T18:22:34.226Z,35.69
2018-09-21T18:25:07.119Z,36.41
2018-09-21T18:27:39.402Z,36.35
2018-09-21T18:32:48.230Z,36.53
2018-09-21T18:35:22.758Z,36.22
2018-09-21T18:38:00.249Z,36.51
2018-09-21T18:40:34.676Z,36.51
2018-09-21T18:43:09.205Z,36.56
2018-09-21T18:45:45.249Z,36.67
2018-09-21T18:48:16.863Z,36.59
2018-09-21T18:50:51.676Z,36.42
2018-09-21T18:53:24.215Z,36.78
2018-09-21T18:55:55.300Z,36.82
2018-09-21T18:58:26.537Z,37.16
2018-09-21T19:00:57.949Z,37.62
2018-09-21T19:03:29.057Z,37.83
2018-09-21T19:06:00.885Z,38.06
2018-09-21T19:08:33.249Z,38.95
2018-09-21T19:11:17.199Z,38.93
2018-09-21T19:13:49.497Z,38.36
2018-09-21T19:16:22.020Z,38.19
2018-09-21T19:18:58.546Z,39.27
2018-09-21T19:21:30.144Z,38.90
2018-09-21T19:24:01.325Z,39.33
2018-09-21T19:26:33.189Z,38.97
2018-09-21T19:29:07.201Z,39.88
2018-09-21T19:31:39.281Z,39.66
2018-09-21T19:34:12.262Z,38.95
2018-09-21T19:36:43.950Z,39.38
2018-09-21T19:39:17.433Z,39.30
2018-09-21T19:41:49.442Z,38.34
2018-09-21T19:44:23.736Z,39.16
2018-09-21T19:46:55.419Z,40.03
2018-09-21T19:49:30.015Z,40.31
2018-09-21T19:52:02.487Z,40.07
2018-09-21T19:54:34.589Z,40.48
2018-09-21T19:57:08.234Z,39.79
2018-09-21T19:59:40.536Z,40.53
2018-09-21T20:02:17.666Z,39.86
2018-09-21T20:04:54.058Z,40.13
2018-09-21T20:07:26.038Z,39.04
2018-09-21T20:10:00.741Z,39.25
2018-09-21T20:12:31.992Z,39.52
2018-09-21T20:15:06.136Z,39.20
2018-09-21T20:17:38.539Z,38.77
2018-09-21T20:20:12.390Z,38.70
2018-09-21T20:22:44.806Z,38.43
2018-09-21T20:25:21.246Z,38.61
2018-09-21T20:27:52.405Z,38.94
2018-09-21T20:30:30.217Z,39.46
2018-09-21T20:33:07.983Z,40.17
2018-09-21T20:35:39.270Z,39.63
2018-09-21T20:38:11.071Z,38.94
2018-09-21T20:40:42.808Z,38.69
2018-09-21T20:43:17.738Z,38.36
2018-09-21T20:45:50.434Z,38.64
2018-09-21T20:48:24.106Z,38.75
2018-09-21T20:50:57.869Z,38.51
2018-09-21T20:53:31.757Z,38.90
2018-09-21T20:56:03.583Z,38.50
2018-09-21T20:58:34.702Z,37.28
2018-09-21T21:01:09.919Z,37.04
2018-09-21T21:03:45.762Z,37.45
2018-09-21T21:06:19.672Z,37.34
2018-09-21T21:08:52.288Z,37.95
2018-09-21T21:11:26.184Z,37.25
2018-09-21T21:13:58.209Z,36.48
2018-09-21T21:16:31.354Z,37.54
2018-09-21T21:19:03.415Z,37.18
2018-09-21T21:21:36.690Z,37.56
2018-09-21T21:26:49.278Z,37.35
2018-09-21T21:29:20.493Z,37.13
2018-09-21T21:31:52.223Z,37.00
2018-09-21T21:34:25.208Z,37.71
2018-09-21T21:36:57.351Z,37.66
2018-09-21T21:39:29.202Z,37.00
2018-09-21T21:42:01.841Z,36.61
2018-09-21T21:44:32.946Z,36.37
2018-09-21T21:47:06.482Z,36.99
2018-09-21T21:49:41.429Z,37.02
2018-09-21T21:52:16.211Z,37.40
2018-09-21T21:54:47.365Z,37.04
2018-09-21T21:57:19.369Z,37.20
2018-09-21T21:59:51.226Z,36.28
2018-09-21T22:02:22.329Z,36.34
2018-09-21T22:04:54.475Z,36.39
2018-09-21T22:07:26.401Z,36.28
2018-09-21T22:09:57.462Z,35.92
2018-09-21T22:12:33.628Z,35.54
2018-09-21T22:15:05.363Z,35.57
2018-09-21T22:17:37.714Z,35.51
2018-09-21T22:20:08.762Z,36.07
2018-09-21T22:22:40.843Z,35.66
2018-09-21T22:25:12.529Z,35.66
2018-09-21T22:27:45.546Z,35.57
2018-09-21T22:30:22.336Z,35.58
2018-09-21T22:32:53.377Z,36.43
2018-09-21T22:35:36.924Z,36.31
2018-09-21T22:38:13.358Z,36.35
2018-09-21T22:40:55.246Z,35.92
2018-09-21T22:43:29.929Z,35.50
2018-09-21T22:46:00.988Z,36.50
2018-09-21T22:48:32.606Z,36.64
2018-09-21T22:51:05.253Z,35.90
2018-09-21T22:53:39.453Z,36.66
2018-09-21T22:56:10.665Z,36.85
2018-09-21T22:58:41.800Z,37.14
2018-09-21T23:01:14.959Z,36.95
2018-09-21T23:03:50.514Z,36.60
2018-09-21T23:06:26.533Z,36.30
2018-09-21T23:08:58.201Z,36.71
2018-09-21T23:11:30.753Z,36.24
2018-09-21T23:14:03.562Z,36.22
2018-09-21T23:16:34.678Z,37.05
2018-09-21T23:19:05.845Z,36.84
2018-09-21T23:21:40.600Z,38.04
2018-09-21T23:24:13.622Z,37.49
2018-09-21T23:26:47.121Z,37.48
2018-09-21T23:29:18.281Z,37.85
2018-09-21T23:31:50.039Z,36.74
2018-09-21T23:34:21.339Z,37.72
2018-09-21T23:36:52.464Z,37.52
2018-09-21T23:39:24.268Z,37.18
2018-09-21T23:41:57.780Z,38.29
2018-09-21T23:44:30.631Z,37.55
2018-09-21T23:47:02.486Z,37.12
2018-09-21T23:49:33.555Z,37.68
2018-09-21T23:52:04.724Z,37.93
2018-09-21T23:54:36.384Z,37.38
2018-09-21T23:57:08.402Z,37.41
2018-09-21T23:59:41.071Z,37.20
